sensor_id;sensor_type;location;lat;lon;timestamp;temperature;humidity
39371;DHT22;25099;51.946;4.838;2024-03-06T00:00:06;8.70;99.90
39371;DHT22;25099;51.946;4.838;2024-03-06T00:02:35;8.70;99.90
39371;DHT22;25099;51.946;4.838;2024-03-06T00:05:01;8.60;99.90
39371;DHT22;25099;51.946;4.838;2024-03-06T00:07:27;8.50;99.90
39371;DHT22;25099;51.946;4.838;2024-03-06T00:09:52;8.50;99.90
39371;DHT22;25099;51.946;4.838;2024-03-06T00:12:18;8.50;99.90
39371;DHT22;25099;51.946;4.838;2024-03-06T00:14:44;8.50;99.90
39371;DHT22;25099;51.946;4.838;2024-03-06T00:17:09;8.50;99.90
39371;DHT22;25099;51.946;4.838;2024-03-06T00:19:35;8.50;99.90
39371;DHT22;25099;51.946;4.838;2024-03-06T00:22:00;8.50;99.90
39371;DHT22;25099;51.946;4.838;2024-03-06T00:24:26;8.40;99.90
39371;DHT22;25099;51.946;4.838;2024-03-06T00:26:52;8.50;99.90
39371;DHT22;25099;51.946;4.838;2024-03-06T00:29:18;8.50;99.90
39371;DHT22;25099;51.946;4.838;2024-03-06T00:31:44;8.40;99.90
39371;DHT22;25099;51.946;4.838;2024-03-06T00:34:10;8.40;99.90
39371;DHT22;25099;51.946;4.838;2024-03-06T00:36:39;8.40;99.90
39371;DHT22;25099;51.946;4.838;2024-03-06T00:39:05;8.40;99.90
39371;DHT22;25099;51.946;4.838;2024-03-06T00:41:31;8.40;99.90
39371;DHT22;25099;51.946;4.838;2024-03-06T00:43:57;8.80;99.90
39371;DHT22;25099;51.946;4.838;2024-03-06T00:46:23;8.50;99.90
39371;DHT22;25099;51.946;4.838;2024-03-06T00:48:48;8.40;99.90
39371;DHT22;25099;51.946;4.838;2024-03-06T00:51:14;8.60;99.90
39371;DHT22;25099;51.946;4.838;2024-03-06T00:53:39;8.40;99.90
39371;DHT22;25099;51.946;4.838;2024-03-06T00:56:06;8.50;99.90
39371;DHT22;25099;51.946;4.838;2024-03-06T00:58:32;8.50;99.90
39371;DHT22;25099;51.946;4.838;2024-03-06T01:00:57;8.50;99.90
39371;DHT22;25099;51.946;4.838;2024-03-06T01:03:24;8.40;99.90
39371;DHT22;25099;51.946;4.838;2024-03-06T01:05:50;8.40;99.90
39371;DHT22;25099;51.946;4.838;2024-03-06T01:08:17;8.50;99.90
39371;DHT22;25099;51.946;4.838;2024-03-06T01:10:43;8.50;99.90
39371;DHT22;25099;51.946;4.838;2024-03-06T01:13:09;8.40;99.90
39371;DHT22;25099;51.946;4.838;2024-03-06T01:15:36;8.40;99.90
39371;DHT22;25099;51.946;4.838;2024-03-06T01:18:02;8.40;99.90
39371;DHT22;25099;51.946;4.838;2024-03-06T01:20:29;8.40;99.90
39371;DHT22;25099;51.946;4.838;2024-03-06T01:22:54;8.40;99.90
39371;DHT22;25099;51.946;4.838;2024-03-06T01:25:28;8.30;99.90
39371;DHT22;25099;51.946;4.838;2024-03-06T01:27:54;7.30;99.90
39371;DHT22;25099;51.946;4.838;2024-03-06T01:30:19;8.30;99.90
39371;DHT22;25099;51.946;4.838;2024-03-06T01:32:45;8.40;99.90
39371;DHT22;25099;51.946;4.838;2024-03-06T01:35:11;8.30;99.90
39371;DHT22;25099;51.946;4.838;2024-03-06T01:37:37;8.30;99.90
39371;DHT22;25099;51.946;4.838;2024-03-06T01:40:03;8.40;99.90
39371;DHT22;25099;51.946;4.838;2024-03-06T01:42:30;8.40;99.90
39371;DHT22;25099;51.946;4.838;2024-03-06T01:44:56;8.30;99.90
39371;DHT22;25099;51.946;4.838;2024-03-06T01:47:21;8.40;99.90
39371;DHT22;25099;51.946;4.838;2024-03-06T01:49:47;8.40;99.90
39371;DHT22;25099;51.946;4.838;2024-03-06T01:52:14;8.40;99.90
39371;DHT22;25099;51.946;4.838;2024-03-06T01:54:42;8.30;99.90
39371;DHT22;25099;51.946;4.838;2024-03-06T01:57:08;8.30;99.90
39371;DHT22;25099;51.946;4.838;2024-03-06T01:59:35;8.30;99.90
39371;DHT22;25099;51.946;4.838;2024-03-06T02:02:01;8.30;99.90
39371;DHT22;25099;51.946;4.838;2024-03-06T02:04:27;8.30;99.90
39371;DHT22;25099;51.946;4.838;2024-03-06T02:06:53;8.30;99.90
39371;DHT22;25099;51.946;4.838;2024-03-06T02:09:20;8.30;99.90
39371;DHT22;25099;51.946;4.838;2024-03-06T02:11:45;8.30;99.90
39371;DHT22;25099;51.946;4.838;2024-03-06T02:14:11;8.40;99.90
39371;DHT22;25099;51.946;4.838;2024-03-06T02:16:37;8.40;99.90
39371;DHT22;25099;51.946;4.838;2024-03-06T02:19:04;8.40;99.90
39371;DHT22;25099;51.946;4.838;2024-03-06T02:21:30;8.40;99.90
39371;DHT22;25099;51.946;4.838;2024-03-06T02:23:56;8.40;99.90
39371;DHT22;25099;51.946;4.838;2024-03-06T02:26:22;8.40;99.90
39371;DHT22;25099;51.946;4.838;2024-03-06T02:28:49;8.40;99.90
39371;DHT22;25099;51.946;4.838;2024-03-06T02:31:18;8.30;99.90
39371;DHT22;25099;51.946;4.838;2024-03-06T02:33:47;8.20;99.90
39371;DHT22;25099;51.946;4.838;2024-03-06T02:36:14;8.20;99.90
39371;DHT22;25099;51.946;4.838;2024-03-06T02:38:40;8.20;99.90
39371;DHT22;25099;51.946;4.838;2024-03-06T02:41:06;8.30;99.90
39371;DHT22;25099;51.946;4.838;2024-03-06T02:43:33;8.20;99.90
39371;DHT22;25099;51.946;4.838;2024-03-06T02:45:59;8.20;99.90
39371;DHT22;25099;51.946;4.838;2024-03-06T02:48:24;8.10;99.90
39371;DHT22;25099;51.946;4.838;2024-03-06T02:50:50;8.10;99.90
39371;DHT22;25099;51.946;4.838;2024-03-06T02:53:15;8.10;99.90
39371;DHT22;25099;51.946;4.838;2024-03-06T02:55:41;8.10;99.90
39371;DHT22;25099;51.946;4.838;2024-03-06T02:58:06;8.10;99.90
39371;DHT22;25099;51.946;4.838;2024-03-06T03:00:32;8.10;99.90
39371;DHT22;25099;51.946;4.838;2024-03-06T03:02:58;8.00;99.90
39371;DHT22;25099;51.946;4.838;2024-03-06T03:05:23;8.00;99.90
39371;DHT22;25099;51.946;4.838;2024-03-06T03:07:49;8.00;99.90
39371;DHT22;25099;51.946;4.838;2024-03-06T03:10:15;8.00;99.90
39371;DHT22;25099;51.946;4.838;2024-03-06T03:12:41;8.00;99.90
39371;DHT22;25099;51.946;4.838;2024-03-06T03:15:07;8.00;99.90
39371;DHT22;25099;51.946;4.838;2024-03-06T03:17:33;8.00;99.90
39371;DHT22;25099;51.946;4.838;2024-03-06T03:20:02;8.10;99.90
39371;DHT22;25099;51.946;4.838;2024-03-06T03:22:44;8.10;99.90
39371;DHT22;25099;51.946;4.838;2024-03-06T03:25:10;8.10;99.90
39371;DHT22;25099;51.946;4.838;2024-03-06T03:27:38;8.00;99.90
39371;DHT22;25099;51.946;4.838;2024-03-06T03:30:05;8.00;99.90
39371;DHT22;25099;51.946;4.838;2024-03-06T03:32:32;8.00;99.90
39371;DHT22;25099;51.946;4.838;2024-03-06T03:34:58;7.90;99.90
39371;DHT22;25099;51.946;4.838;2024-03-06T03:37:23;7.90;99.90
39371;DHT22;25099;51.946;4.838;2024-03-06T03:39:49;7.90;99.90
39371;DHT22;25099;51.946;4.838;2024-03-06T03:42:14;7.80;99.90
39371;DHT22;25099;51.946;4.838;2024-03-06T03:44:40;7.80;99.90
39371;DHT22;25099;51.946;4.838;2024-03-06T03:47:06;7.80;99.90
39371;DHT22;25099;51.946;4.838;2024-03-06T03:49:31;7.80;99.90
39371;DHT22;25099;51.946;4.838;2024-03-06T03:51:57;7.80;99.90
39371;DHT22;25099;51.946;4.838;2024-03-06T03:54:22;7.70;99.90
39371;DHT22;25099;51.946;4.838;2024-03-06T03:56:48;7.70;99.90
39371;DHT22;25099;51.946;4.838;2024-03-06T03:59:14;7.70;99.90
39371;DHT22;25099;51.946;4.838;2024-03-06T04:01:39;7.60;99.90
39371;DHT22;25099;51.946;4.838;2024-03-06T04:04:05;7.60;99.90
39371;DHT22;25099;51.946;4.838;2024-03-06T04:06:32;7.60;99.90
39371;DHT22;25099;51.946;4.838;2024-03-06T04:08:57;7.50;99.90
39371;DHT22;25099;51.946;4.838;2024-03-06T04:11:23;7.50;99.90
39371;DHT22;25099;51.946;4.838;2024-03-06T04:13:49;7.50;99.90
39371;DHT22;25099;51.946;4.838;2024-03-06T04:16:17;7.60;99.90
39371;DHT22;25099;51.946;4.838;2024-03-06T04:18:44;7.50;99.90
39371;DHT22;25099;51.946;4.838;2024-03-06T04:21:10;7.50;99.90
39371;DHT22;25099;51.946;4.838;2024-03-06T04:23:36;7.50;99.90
39371;DHT22;25099;51.946;4.838;2024-03-06T04:26:03;7.60;99.90
39371;DHT22;25099;51.946;4.838;2024-03-06T04:28:29;7.60;99.90
39371;DHT22;25099;51.946;4.838;2024-03-06T04:30:54;7.50;99.90
39371;DHT22;25099;51.946;4.838;2024-03-06T04:33:20;7.50;99.90
39371;DHT22;25099;51.946;4.838;2024-03-06T04:35:46;7.50;99.90
39371;DHT22;25099;51.946;4.838;2024-03-06T04:38:11;7.50;99.90
39371;DHT22;25099;51.946;4.838;2024-03-06T04:40:37;7.50;99.90
39371;DHT22;25099;51.946;4.838;2024-03-06T04:43:03;7.50;99.90
39371;DHT22;25099;51.946;4.838;2024-03-06T04:45:28;7.40;99.90
39371;DHT22;25099;51.946;4.838;2024-03-06T04:47:55;7.30;99.90
39371;DHT22;25099;51.946;4.838;2024-03-06T04:50:20;7.20;99.90
39371;DHT22;25099;51.946;4.838;2024-03-06T04:52:46;7.20;99.90
39371;DHT22;25099;51.946;4.838;2024-03-06T04:55:12;7.10;99.90
39371;DHT22;25099;51.946;4.838;2024-03-06T04:57:41;7.10;99.90
39371;DHT22;25099;51.946;4.838;2024-03-06T05:00:08;7.10;99.90
39371;DHT22;25099;51.946;4.838;2024-03-06T05:02:34;7.00;99.90
39371;DHT22;25099;51.946;4.838;2024-03-06T05:05:01;7.10;99.90
39371;DHT22;25099;51.946;4.838;2024-03-06T05:07:31;7.00;99.90
39371;DHT22;25099;51.946;4.838;2024-03-06T05:09:57;7.00;99.90
39371;DHT22;25099;51.946;4.838;2024-03-06T05:12:24;7.80;99.90
39371;DHT22;25099;51.946;4.838;2024-03-06T05:14:54;6.90;99.90
39371;DHT22;25099;51.946;4.838;2024-03-06T05:17:20;6.80;99.90
39371;DHT22;25099;51.946;4.838;2024-03-06T05:19:46;6.80;99.90
39371;DHT22;25099;51.946;4.838;2024-03-06T05:22:13;6.80;99.90
39371;DHT22;25099;51.946;4.838;2024-03-06T05:24:39;6.80;99.90
39371;DHT22;25099;51.946;4.838;2024-03-06T05:27:05;6.90;99.90
39371;DHT22;25099;51.946;4.838;2024-03-06T05:29:31;6.90;99.90
39371;DHT22;25099;51.946;4.838;2024-03-06T05:31:57;6.90;99.90
39371;DHT22;25099;51.946;4.838;2024-03-06T05:34:22;7.50;99.90
39371;DHT22;25099;51.946;4.838;2024-03-06T05:36:48;7.10;99.90
39371;DHT22;25099;51.946;4.838;2024-03-06T05:39:14;7.20;99.90
39371;DHT22;25099;51.946;4.838;2024-03-06T05:41:40;7.20;99.90
39371;DHT22;25099;51.946;4.838;2024-03-06T05:44:06;7.10;99.90
39371;DHT22;25099;51.946;4.838;2024-03-06T05:46:32;7.10;99.90
39371;DHT22;25099;51.946;4.838;2024-03-06T05:48:58;7.10;99.90
39371;DHT22;25099;51.946;4.838;2024-03-06T05:51:23;7.00;99.90
39371;DHT22;25099;51.946;4.838;2024-03-06T05:53:49;7.00;99.90
39371;DHT22;25099;51.946;4.838;2024-03-06T05:56:14;7.00;99.90
39371;DHT22;25099;51.946;4.838;2024-03-06T05:58:40;7.00;99.90
39371;DHT22;25099;51.946;4.838;2024-03-06T06:01:05;7.00;99.90
39371;DHT22;25099;51.946;4.838;2024-03-06T06:03:31;6.80;99.90
39371;DHT22;25099;51.946;4.838;2024-03-06T06:05:57;6.80;99.90
39371;DHT22;25099;51.946;4.838;2024-03-06T06:08:24;6.80;99.90
39371;DHT22;25099;51.946;4.838;2024-03-06T06:10:49;6.80;99.90
39371;DHT22;25099;51.946;4.838;2024-03-06T06:13:17;6.90;99.90
39371;DHT22;25099;51.946;4.838;2024-03-06T06:15:43;6.90;99.90
39371;DHT22;25099;51.946;4.838;2024-03-06T06:18:08;7.10;99.90
39371;DHT22;25099;51.946;4.838;2024-03-06T06:20:34;7.00;99.90
39371;DHT22;25099;51.946;4.838;2024-03-06T06:23:00;7.00;99.90
39371;DHT22;25099;51.946;4.838;2024-03-06T06:25:25;7.00;99.90
39371;DHT22;25099;51.946;4.838;2024-03-06T06:27:51;7.00;99.90
39371;DHT22;25099;51.946;4.838;2024-03-06T06:30:16;7.10;99.90
39371;DHT22;25099;51.946;4.838;2024-03-06T06:32:42;7.00;99.90
39371;DHT22;25099;51.946;4.838;2024-03-06T06:35:09;7.10;99.90
39371;DHT22;25099;51.946;4.838;2024-03-06T06:37:35;7.10;99.90
39371;DHT22;25099;51.946;4.838;2024-03-06T06:40:01;7.10;99.90
39371;DHT22;25099;51.946;4.838;2024-03-06T06:42:32;7.20;99.90
39371;DHT22;25099;51.946;4.838;2024-03-06T06:44:59;7.20;99.90
39371;DHT22;25099;51.946;4.838;2024-03-06T06:47:24;7.20;99.90
39371;DHT22;25099;51.946;4.838;2024-03-06T06:49:50;7.20;99.90
39371;DHT22;25099;51.946;4.838;2024-03-06T06:52:15;7.20;99.90
39371;DHT22;25099;51.946;4.838;2024-03-06T06:54:41;7.20;99.90
39371;DHT22;25099;51.946;4.838;2024-03-06T06:57:07;7.20;99.90
39371;DHT22;25099;51.946;4.838;2024-03-06T06:59:33;7.20;99.90
39371;DHT22;25099;51.946;4.838;2024-03-06T07:02:00;7.30;99.90
39371;DHT22;25099;51.946;4.838;2024-03-06T07:04:25;7.30;99.90
39371;DHT22;25099;51.946;4.838;2024-03-06T07:06:51;7.40;99.90
39371;DHT22;25099;51.946;4.838;2024-03-06T07:09:17;7.40;99.90
39371;DHT22;25099;51.946;4.838;2024-03-06T07:11:43;7.50;99.90
39371;DHT22;25099;51.946;4.838;2024-03-06T07:14:11;7.50;99.90
39371;DHT22;25099;51.946;4.838;2024-03-06T07:16:46;7.50;99.90
39371;DHT22;25099;51.946;4.838;2024-03-06T07:19:12;7.60;99.90
39371;DHT22;25099;51.946;4.838;2024-03-06T07:21:38;7.60;99.90
39371;DHT22;25099;51.946;4.838;2024-03-06T07:24:04;7.60;99.90
39371;DHT22;25099;51.946;4.838;2024-03-06T07:26:34;7.70;99.90
39371;DHT22;25099;51.946;4.838;2024-03-06T07:28:59;7.70;99.90
39371;DHT22;25099;51.946;4.838;2024-03-06T07:31:26;7.70;99.90
39371;DHT22;25099;51.946;4.838;2024-03-06T07:33:52;7.70;99.90
39371;DHT22;25099;51.946;4.838;2024-03-06T07:36:18;7.70;99.90
39371;DHT22;25099;51.946;4.838;2024-03-06T07:38:44;7.70;99.90
39371;DHT22;25099;51.946;4.838;2024-03-06T07:41:09;7.70;99.90
39371;DHT22;25099;51.946;4.838;2024-03-06T07:43:37;7.70;99.90
39371;DHT22;25099;51.946;4.838;2024-03-06T07:46:04;7.80;99.90
39371;DHT22;25099;51.946;4.838;2024-03-06T07:48:38;7.80;99.90
39371;DHT22;25099;51.946;4.838;2024-03-06T07:51:07;7.90;99.90
39371;DHT22;25099;51.946;4.838;2024-03-06T07:53:33;7.90;99.90
39371;DHT22;25099;51.946;4.838;2024-03-06T07:55:58;7.90;99.90
39371;DHT22;25099;51.946;4.838;2024-03-06T07:58:24;7.90;99.90
39371;DHT22;25099;51.946;4.838;2024-03-06T08:00:49;8.00;99.90
39371;DHT22;25099;51.946;4.838;2024-03-06T08:03:15;8.00;99.90
39371;DHT22;25099;51.946;4.838;2024-03-06T08:05:40;8.00;99.90
39371;DHT22;25099;51.946;4.838;2024-03-06T08:08:06;8.00;99.90
39371;DHT22;25099;51.946;4.838;2024-03-06T08:10:32;8.10;99.90
39371;DHT22;25099;51.946;4.838;2024-03-06T08:12:59;8.10;99.90
39371;DHT22;25099;51.946;4.838;2024-03-06T08:15:24;8.20;99.90
39371;DHT22;25099;51.946;4.838;2024-03-06T08:17:50;8.40;99.90
39371;DHT22;25099;51.946;4.838;2024-03-06T08:20:17;8.40;99.90
39371;DHT22;25099;51.946;4.838;2024-03-06T08:22:43;8.40;99.90
39371;DHT22;25099;51.946;4.838;2024-03-06T08:25:10;8.50;99.90
39371;DHT22;25099;51.946;4.838;2024-03-06T08:27:38;8.60;99.90
39371;DHT22;25099;51.946;4.838;2024-03-06T08:30:04;8.60;99.90
39371;DHT22;25099;51.946;4.838;2024-03-06T08:32:31;8.50;99.90
39371;DHT22;25099;51.946;4.838;2024-03-06T08:34:59;8.60;99.90
39371;DHT22;25099;51.946;4.838;2024-03-06T08:37:24;8.70;99.90
39371;DHT22;25099;51.946;4.838;2024-03-06T08:39:50;8.70;99.90
39371;DHT22;25099;51.946;4.838;2024-03-06T08:42:16;8.70;99.90
39371;DHT22;25099;51.946;4.838;2024-03-06T08:44:44;8.80;99.90
39371;DHT22;25099;51.946;4.838;2024-03-06T08:47:10;8.80;99.90
39371;DHT22;25099;51.946;4.838;2024-03-06T08:49:35;8.80;99.90
39371;DHT22;25099;51.946;4.838;2024-03-06T08:52:01;8.80;99.90
39371;DHT22;25099;51.946;4.838;2024-03-06T08:54:26;8.80;99.90
39371;DHT22;25099;51.946;4.838;2024-03-06T08:56:52;8.70;99.90
39371;DHT22;25099;51.946;4.838;2024-03-06T08:59:23;8.70;99.90
39371;DHT22;25099;51.946;4.838;2024-03-06T09:01:53;8.60;99.90
39371;DHT22;25099;51.946;4.838;2024-03-06T09:04:19;8.60;99.90
39371;DHT22;25099;51.946;4.838;2024-03-06T09:06:45;8.70;99.90
39371;DHT22;25099;51.946;4.838;2024-03-06T09:09:10;8.70;99.90
39371;DHT22;25099;51.946;4.838;2024-03-06T09:11:36;8.80;99.90
39371;DHT22;25099;51.946;4.838;2024-03-06T09:14:01;8.80;99.90
39371;DHT22;25099;51.946;4.838;2024-03-06T09:16:27;8.80;99.90
39371;DHT22;25099;51.946;4.838;2024-03-06T09:18:53;8.90;99.90
39371;DHT22;25099;51.946;4.838;2024-03-06T09:21:18;8.90;99.90
39371;DHT22;25099;51.946;4.838;2024-03-06T09:23:45;8.90;99.90
39371;DHT22;25099;51.946;4.838;2024-03-06T09:26:10;8.90;99.90
39371;DHT22;25099;51.946;4.838;2024-03-06T09:28:36;8.90;99.90
39371;DHT22;25099;51.946;4.838;2024-03-06T09:31:01;8.80;99.90
39371;DHT22;25099;51.946;4.838;2024-03-06T09:33:27;8.90;99.90
39371;DHT22;25099;51.946;4.838;2024-03-06T09:35:53;8.90;99.90
39371;DHT22;25099;51.946;4.838;2024-03-06T09:38:18;8.90;99.90
39371;DHT22;25099;51.946;4.838;2024-03-06T09:40:44;8.90;99.90
39371;DHT22;25099;51.946;4.838;2024-03-06T09:43:09;9.00;99.90
39371;DHT22;25099;51.946;4.838;2024-03-06T09:45:35;9.00;99.90
39371;DHT22;25099;51.946;4.838;2024-03-06T09:48:01;9.00;99.90
39371;DHT22;25099;51.946;4.838;2024-03-06T09:50:29;9.00;99.90
39371;DHT22;25099;51.946;4.838;2024-03-06T09:53:00;9.10;99.90
39371;DHT22;25099;51.946;4.838;2024-03-06T09:55:26;9.10;99.90
39371;DHT22;25099;51.946;4.838;2024-03-06T09:57:52;9.10;99.90
39371;DHT22;25099;51.946;4.838;2024-03-06T10:00:18;9.20;99.90
39371;DHT22;25099;51.946;4.838;2024-03-06T10:02:56;9.20;99.90
39371;DHT22;25099;51.946;4.838;2024-03-06T10:05:23;9.20;99.90
39371;DHT22;25099;51.946;4.838;2024-03-06T10:07:50;9.30;99.90
39371;DHT22;25099;51.946;4.838;2024-03-06T10:10:17;9.30;99.90
39371;DHT22;25099;51.946;4.838;2024-03-06T10:12:44;9.90;99.90
39371;DHT22;25099;51.946;4.838;2024-03-06T10:15:10;9.40;99.90
39371;DHT22;25099;51.946;4.838;2024-03-06T10:17:37;9.40;99.90
39371;DHT22;25099;51.946;4.838;2024-03-06T10:20:17;9.40;99.90
39371;DHT22;25099;51.946;4.838;2024-03-06T10:22:51;9.50;99.90
39371;DHT22;25099;51.946;4.838;2024-03-06T10:25:21;9.50;99.90
39371;DHT22;25099;51.946;4.838;2024-03-06T10:28:08;9.50;99.90
39371;DHT22;25099;51.946;4.838;2024-03-06T10:30:35;9.50;99.90
39371;DHT22;25099;51.946;4.838;2024-03-06T10:33:05;10.40;99.90
39371;DHT22;25099;51.946;4.838;2024-03-06T10:35:41;9.60;99.90
39371;DHT22;25099;51.946;4.838;2024-03-06T10:38:08;10.00;99.90
39371;DHT22;25099;51.946;4.838;2024-03-06T10:40:41;9.80;99.90
39371;DHT22;25099;51.946;4.838;2024-03-06T10:43:07;10.00;99.90
39371;DHT22;25099;51.946;4.838;2024-03-06T10:45:59;10.00;99.90
39371;DHT22;25099;51.946;4.838;2024-03-06T10:48:28;10.10;99.90
39371;DHT22;25099;51.946;4.838;2024-03-06T10:50:57;10.10;99.90
39371;DHT22;25099;51.946;4.838;2024-03-06T10:53:26;10.10;99.90
39371;DHT22;25099;51.946;4.838;2024-03-06T10:55:52;10.20;99.90
39371;DHT22;25099;51.946;4.838;2024-03-06T10:58:19;10.10;99.90
39371;DHT22;25099;51.946;4.838;2024-03-06T11:00:46;10.10;99.90
39371;DHT22;25099;51.946;4.838;2024-03-06T11:03:13;10.10;99.90
39371;DHT22;25099;51.946;4.838;2024-03-06T11:05:43;10.20;99.90
39371;DHT22;25099;51.946;4.838;2024-03-06T11:08:12;10.20;99.90
39371;DHT22;25099;51.946;4.838;2024-03-06T11:10:39;10.20;99.90
39371;DHT22;25099;51.946;4.838;2024-03-06T11:15:46;10.20;99.90
39371;DHT22;25099;51.946;4.838;2024-03-06T11:23:34;10.30;99.90
39371;DHT22;25099;51.946;4.838;2024-03-06T11:26:03;10.40;99.90
39371;DHT22;25099;51.946;4.838;2024-03-06T11:28:34;10.40;99.90
39371;DHT22;25099;51.946;4.838;2024-03-06T11:31:06;10.40;99.90
39371;DHT22;25099;51.946;4.838;2024-03-06T11:33:42;10.50;99.90
39371;DHT22;25099;51.946;4.838;2024-03-06T11:36:20;10.50;99.90
39371;DHT22;25099;51.946;4.838;2024-03-06T11:39:05;10.60;99.90
39371;DHT22;25099;51.946;4.838;2024-03-06T11:44:01;10.80;99.90
39371;DHT22;25099;51.946;4.838;2024-03-06T11:46:48;10.90;99.90
39371;DHT22;25099;51.946;4.838;2024-03-06T11:49:21;11.00;99.90
39371;DHT22;25099;51.946;4.838;2024-03-06T11:51:50;11.00;99.90
39371;DHT22;25099;51.946;4.838;2024-03-06T11:54:16;11.10;99.90
39371;DHT22;25099;51.946;4.838;2024-03-06T11:56:45;11.10;99.90
39371;DHT22;25099;51.946;4.838;2024-03-06T11:59:12;11.10;99.90
39371;DHT22;25099;51.946;4.838;2024-03-06T12:01:38;11.10;99.90
39371;DHT22;25099;51.946;4.838;2024-03-06T12:04:04;11.00;99.90
39371;DHT22;25099;51.946;4.838;2024-03-06T12:06:31;11.10;99.90
39371;DHT22;25099;51.946;4.838;2024-03-06T12:08:58;11.10;99.90
39371;DHT22;25099;51.946;4.838;2024-03-06T12:11:23;11.10;99.90
39371;DHT22;25099;51.946;4.838;2024-03-06T12:13:51;11.10;99.90
39371;DHT22;25099;51.946;4.838;2024-03-06T12:16:17;11.20;99.90
39371;DHT22;25099;51.946;4.838;2024-03-06T12:18:43;11.20;99.90
39371;DHT22;25099;51.946;4.838;2024-03-06T12:21:10;11.20;99.90
39371;DHT22;25099;51.946;4.838;2024-03-06T12:23:36;11.30;99.90
39371;DHT22;25099;51.946;4.838;2024-03-06T12:26:08;11.30;99.90
39371;DHT22;25099;51.946;4.838;2024-03-06T12:28:36;11.40;99.90
39371;DHT22;25099;51.946;4.838;2024-03-06T12:31:03;11.40;99.90
39371;DHT22;25099;51.946;4.838;2024-03-06T12:33:29;11.60;99.90
39371;DHT22;25099;51.946;4.838;2024-03-06T12:36:03;11.60;99.90
39371;DHT22;25099;51.946;4.838;2024-03-06T12:38:29;11.70;99.90
39371;DHT22;25099;51.946;4.838;2024-03-06T12:40:55;11.80;99.90
39371;DHT22;25099;51.946;4.838;2024-03-06T12:43:21;11.80;99.90
39371;DHT22;25099;51.946;4.838;2024-03-06T12:45:46;12.20;99.90
39371;DHT22;25099;51.946;4.838;2024-03-06T12:48:12;11.80;99.90
39371;DHT22;25099;51.946;4.838;2024-03-06T12:50:38;11.90;99.90
39371;DHT22;25099;51.946;4.838;2024-03-06T12:53:04;12.50;99.90
39371;DHT22;25099;51.946;4.838;2024-03-06T12:55:32;12.30;99.90
39371;DHT22;25099;51.946;4.838;2024-03-06T12:57:58;11.90;99.90
39371;DHT22;25099;51.946;4.838;2024-03-06T13:00:23;12.50;99.90
39371;DHT22;25099;51.946;4.838;2024-03-06T13:02:50;12.00;99.90
39371;DHT22;25099;51.946;4.838;2024-03-06T13:05:18;12.00;99.90
39371;DHT22;25099;51.946;4.838;2024-03-06T13:07:45;12.10;99.90
39371;DHT22;25099;51.946;4.838;2024-03-06T13:10:11;12.00;99.90
39371;DHT22;25099;51.946;4.838;2024-03-06T13:12:38;12.40;99.90
39371;DHT22;25099;51.946;4.838;2024-03-06T13:15:04;11.90;99.90
39371;DHT22;25099;51.946;4.838;2024-03-06T13:17:30;11.90;99.90
39371;DHT22;25099;51.946;4.838;2024-03-06T13:19:56;11.90;99.90
39371;DHT22;25099;51.946;4.838;2024-03-06T13:22:22;12.10;99.90
39371;DHT22;25099;51.946;4.838;2024-03-06T13:24:48;12.20;99.90
39371;DHT22;25099;51.946;4.838;2024-03-06T13:27:14;11.90;99.90
39371;DHT22;25099;51.946;4.838;2024-03-06T13:29:39;12.00;99.90
39371;DHT22;25099;51.946;4.838;2024-03-06T13:32:06;12.10;99.90
39371;DHT22;25099;51.946;4.838;2024-03-06T13:34:32;12.20;99.90
39371;DHT22;25099;51.946;4.838;2024-03-06T13:36:59;12.20;99.90
39371;DHT22;25099;51.946;4.838;2024-03-06T13:39:26;12.30;99.90
39371;DHT22;25099;51.946;4.838;2024-03-06T13:41:52;12.40;99.90
39371;DHT22;25099;51.946;4.838;2024-03-06T13:44:18;12.40;99.90
39371;DHT22;25099;51.946;4.838;2024-03-06T13:46:44;12.50;99.90
39371;DHT22;25099;51.946;4.838;2024-03-06T13:52:04;12.60;99.90
39371;DHT22;25099;51.946;4.838;2024-03-06T13:54:34;12.70;99.90
39371;DHT22;25099;51.946;4.838;2024-03-06T13:57:00;12.90;99.90
39371;DHT22;25099;51.946;4.838;2024-03-06T13:59:31;12.90;99.90
39371;DHT22;25099;51.946;4.838;2024-03-06T14:01:57;12.80;99.90
39371;DHT22;25099;51.946;4.838;2024-03-06T14:04:24;12.70;99.90
39371;DHT22;25099;51.946;4.838;2024-03-06T14:06:50;12.70;99.90
39371;DHT22;25099;51.946;4.838;2024-03-06T14:09:20;12.70;99.90
39371;DHT22;25099;51.946;4.838;2024-03-06T14:11:51;12.70;99.90
39371;DHT22;25099;51.946;4.838;2024-03-06T14:14:18;12.60;99.90
39371;DHT22;25099;51.946;4.838;2024-03-06T14:16:44;12.50;99.90
39371;DHT22;25099;51.946;4.838;2024-03-06T14:19:10;12.50;99.90
39371;DHT22;25099;51.946;4.838;2024-03-06T14:21:36;12.90;99.90
39371;DHT22;25099;51.946;4.838;2024-03-06T14:24:02;12.40;99.90
39371;DHT22;25099;51.946;4.838;2024-03-06T14:26:34;12.30;99.90
39371;DHT22;25099;51.946;4.838;2024-03-06T14:29:01;12.30;99.90
39371;DHT22;25099;51.946;4.838;2024-03-06T14:31:31;12.20;99.90
39371;DHT22;25099;51.946;4.838;2024-03-06T14:33:57;12.20;99.90
39371;DHT22;25099;51.946;4.838;2024-03-06T14:36:22;12.20;99.90
39371;DHT22;25099;51.946;4.838;2024-03-06T14:38:50;12.10;99.90
39371;DHT22;25099;51.946;4.838;2024-03-06T14:41:18;12.10;99.90
39371;DHT22;25099;51.946;4.838;2024-03-06T14:43:44;12.10;99.90
39371;DHT22;25099;51.946;4.838;2024-03-06T14:46:11;12.10;99.90
39371;DHT22;25099;51.946;4.838;2024-03-06T14:48:38;12.10;99.90
39371;DHT22;25099;51.946;4.838;2024-03-06T14:51:03;12.00;99.90
39371;DHT22;25099;51.946;4.838;2024-03-06T14:53:29;12.10;99.90
39371;DHT22;25099;51.946;4.838;2024-03-06T14:55:56;12.10;99.90
39371;DHT22;25099;51.946;4.838;2024-03-06T14:58:21;12.10;99.90
39371;DHT22;25099;51.946;4.838;2024-03-06T15:00:48;12.20;99.90
39371;DHT22;25099;51.946;4.838;2024-03-06T15:03:14;12.30;99.90
39371;DHT22;25099;51.946;4.838;2024-03-06T15:05:40;12.40;99.90
39371;DHT22;25099;51.946;4.838;2024-03-06T15:08:06;12.50;99.90
39371;DHT22;25099;51.946;4.838;2024-03-06T15:10:31;12.70;99.90
39371;DHT22;25099;51.946;4.838;2024-03-06T15:13:00;12.70;99.90
39371;DHT22;25099;51.946;4.838;2024-03-06T15:15:25;12.80;99.90
39371;DHT22;25099;51.946;4.838;2024-03-06T15:17:51;12.90;99.90
39371;DHT22;25099;51.946;4.838;2024-03-06T15:20:17;12.90;99.90
39371;DHT22;25099;51.946;4.838;2024-03-06T15:22:45;13.00;99.90
39371;DHT22;25099;51.946;4.838;2024-03-06T15:25:11;13.00;99.90
39371;DHT22;25099;51.946;4.838;2024-03-06T15:27:38;13.00;99.90
39371;DHT22;25099;51.946;4.838;2024-03-06T15:30:05;12.80;99.90
39371;DHT22;25099;51.946;4.838;2024-03-06T15:32:30;12.80;99.90
39371;DHT22;25099;51.946;4.838;2024-03-06T15:34:56;12.90;99.90
39371;DHT22;25099;51.946;4.838;2024-03-06T15:37:23;12.90;99.90
39371;DHT22;25099;51.946;4.838;2024-03-06T15:39:54;13.30;99.90
39371;DHT22;25099;51.946;4.838;2024-03-06T15:42:20;12.90;99.90
39371;DHT22;25099;51.946;4.838;2024-03-06T15:44:47;13.00;99.90
39371;DHT22;25099;51.946;4.838;2024-03-06T15:47:13;13.10;99.90
39371;DHT22;25099;51.946;4.838;2024-03-06T15:49:38;13.10;99.90